Weather observations for the past three days for
Schenectady Airport
| Date | Time (edt) | Wind (mph) | Vis. (mi.) | Weather | Sky Cond. | Temperature (ºF) | Relative Humidity | Wind Chill (°F) | Heat Index (°F) | Pressure | Precipitation (in) | ||||||
|---|---|---|---|---|---|---|---|---|---|---|---|---|---|---|---|---|---|
| Air | Dwpt | 6 hour | altimeter (in) | sea level (mb) | 1 hr | 3 hr | 6 hr | ||||||||||
| Max. | Min. | ||||||||||||||||
| 02 | 20:45 | W 7 | 10.00 | Fair | CLR | 44.6 | 26.6 | 49% | 41 | 29.91 | 0.0 | ||||||
| 02 | 19:58 | NW 8 | 10.00 | Partly Cloudy | SCT085 | 46.4 | 24.8 | 43% | 43 | 29.9 | 0.0 | ||||||
| 02 | 17:45 | NW 15 G 22 | 10.00 | Fair | CLR | 53.6 | 24.8 | 33% | 29.88 | 0.0 | |||||||
| 02 | 16:49 | NW 14 G 23 | 10.00 | Partly Cloudy | SCT070 | 53.6 | 24.8 | 33% | 29.87 | 0.0 | |||||||
| 02 | 15:58 | W 17 G 28 | 10.00 | Partly Cloudy | SCT060 | 55.4 | 21.2 | 26% | 29.88 | 0.0 | |||||||
| 02 | 14:54 | NW 18 G 26 | 10.00 | Partly Cloudy | SCT060 | 53.6 | 26.6 | 35% | 29.89 | 0.0 | |||||||
| 02 | 13:47 | W 14 G 18 | 10.00 | Partly Cloudy | SCT060 | 55.4 | 30.2 | 38% | 29.88 | 0.0 | |||||||
| 02 | 12:59 | NW 15 G 20 | 10.00 | Mostly Cloudy | BKN050 BKN055 | 50 | 33.8 | 54% | 45 | 29.89 | 0.0 | ||||||
| 02 | 10:50 | W 12 G 22 | 10.00 | Overcast | OVC034 | 50 | 33.8 | 54% | 46 | 29.91 | 0.0 | ||||||
| 02 | 08:57 | NW 13 | 10.00 | Mostly Cloudy | BKN020 BKN110 | 46.4 | 35.6 | 66% | 41 | 29.91 | 0.0 | ||||||
| 01 | 21:45 | SW 7 | 10.00 | Overcast | BKN060 OVC075 | 53.6 | 33.8 | 47% | 29.88 | 0.0 | |||||||
| 01 | 20:45 | W 3 | 10.00 | Overcast | SCT050 BKN070 OVC090 | 53.6 | 32 | 44% | 29.86 | 0.0 | |||||||
| 01 | 18:48 | W 8 | 10.00 | Partly Cloudy | SCT110 | 57.2 | 28.4 | 33% | 29.83 | 0.0 | |||||||
| 01 | 14:57 | W 9 G 22 | 10.00 | Fair | CLR | 59 | 24.8 | 27% | 29.84 | 0.0 | |||||||
| 01 | 10:48 | W 12 G 18 | 10.00 | Fair | CLR | 53.6 | 32 | 44% | 29.89 | 0.0 | |||||||
| 01 | 08:53 | W 13 | 10.00 | Fair | CLR | 46.4 | 33.8 | 62% | 41 | 29.9 | 0.0 | ||||||
| 01 | 07:51 | W 10 | 10.00 | Fair | CLR | 44.6 | 33.8 | 66% | 40 | 29.89 | 0.0 | ||||||
| 30 | 21:45 | W 9 | 10.00 | Overcast | OVC040 | 48.2 | 33.8 | 58% | 45 | 29.85 | 0.0 | ||||||
| 30 | 20:52 | W 14 G 23 | 10.00 | Partly Cloudy | SCT100 | 48.2 | 33.8 | 58% | 43 | 29.81 | 0.0 | ||||||
| 30 | 19:45 | W 22 G 30 | 10.00 | Overcast and Breezy | OVC060 | 51.8 | 35.6 | 54% | 29.78 | 0.0 | |||||||
| 30 | 17:59 | W 17 G 24 | 10.00 | Overcast | OVC050 | 57.2 | 37.4 | 48% | 29.75 | 0.0 | |||||||
| 30 | 15:45 | W 17 G 24 | 10.00 | Overcast | OVC060 | 59 | 39.2 | 48% | 29.72 | 0.0 | |||||||
| 30 | 14:46 | NW 16 G 21 | 10.00 | Overcast | BKN030 OVC060 | 59 | 42.8 | 55% | 29.72 | 0.0 | |||||||
| 30 | 07:50 | S 6 | 10.00 | Overcast | OVC007 | 48.2 | 48.2 | 100% | 46 | 29.74 | 0.0 | ||||||
| Date | Time (edt) | Wind (mph) | Vis. (mi.) | Weather | Sky Cond. | Air | Dwpt | Max. | Min. | Relative Humidity | Wind Chill (°F) | Heat Index (°F) | altimeter (in) | sea level (mb) | 1 hr | 3 hr | 6 hr |
| 6 hour | |||||||||||||||||
| Temperature (ºF) | Pressure | Precipitation (in) | |||||||||||||||